Florence Regional Airport
KFLO : now visible

Airfield :











YOU CAN JOIN US ON...

 
LOGIN :

Register | Disclaimer

   EN    FR    IT 

 









Legend :    VFR   Marginal VFR   IFR   Intensive IFR   Very Intensive IFR
Visi :
Ceiling :
>= 8 km
>= 3000ft
5 to 8 km
1000 to 3000 ft
1500m to 5 km
500 to 1000 ft
800 to 1500m
200 to 500 ft
< 800m
< 200 ft
Symbols :   Thunderstorms  Fog  Heavy snow  Heavy precipitations  Wind > 20 kt






- Airport Elevation : 146 ft
- IATA code : FLO


KFLO - Florence Regional

CURRENT METAR :
  • 112053Z 11006KT 10SM FEW039 BKN055 OVC070 31/22 A2994 RMK AO2 SLP136 T03060222 58015

EXPIRED METARs :
  • 111953Z 19004KT 10SM SCT036 SCT043 BKN080 31/22 A2996 RMK AO2 SLP141 T03110217
  • 111853Z 19005KT 10SM FEW036 SCT043 SCT050 31/22 A2998 RMK AO2 SLP147 T03060222

TAF KFLO
Valid from the 11 at 18:00 until the 12 at 18:00 UTC


111720Z 1118/1218 17007KT P6SM VCTS SCT045CB BKN140
FM112300 15005KT P6SM SCT100
KZJX FIR / North America



MET'MAP, your aeronautical weather chart ! - Copyright ORBIFLY December 2007 - Disclaimer

ORBIFLY MET'MAP TEAM :

Programming & Development : Alexandra Zaïnal
Concept & original design : Baudouin d'Aumeries
Assistance for programming : Marc-Olivier Méhu
Technical & hardware support : Manuel Goepfert

Contact : metmap@orbifly.com




SOURCES & CREDITS :

   NOAA       Earth
Advisory